seojapan.com alexa rank chart, seojapan.com alexa rank daily changes

seojapan.com alexa rank chart, seojapan.com alexa rank daily changes

seojapan.com
Actual rank:
139 761

RANK HISTORY

Date Rank Diff
2017/08/16 139 761 +5 235
2017/08/15 134 526 +2 640
2017/08/14 131 886 +7 329
2017/08/13 124 557 +971
2017/08/12 123 586 -2 785
2017/08/11 126 371 -3 927
2017/08/10 130 298 -1 726
2017/08/09 132 024 +48
2017/08/08 131 976 -7 391
2017/08/07 139 367 +883
2017/08/06 138 484 +3 015
2017/08/05 135 469 -26
2017/08/04 135 495 -10 093
2017/08/03 145 588 +6 240
2017/08/02 139 348 -1 191
2017/08/01 140 539 -756
2017/07/31 141 295 -3 935
2017/07/30 145 230 -8 398
2017/07/29 153 628 -1 133
2017/07/28 154 761 -5 034
2017/07/27 159 795 -9 609
2017/07/26 169 404 -3 907
2017/07/25 173 311 +5 045
2017/07/24 168 266 +3 345
2017/07/23 164 921 -349
2017/07/22 165 270 +219
2017/07/21 165 051 +2 263
2017/07/20 162 788 -762
2017/07/19 163 550 +1 314
2017/07/18 162 236 +3 502
2017/07/17 158 734 +1 514
2017/07/16 157 220 -5 002
2017/07/15 162 222 +537
2017/07/14 161 685 -12 789
2017/07/13 174 474 +4 531
2017/07/12 169 943 -5 620
2017/07/11 175 563 +7 880
2017/07/10 167 683 -2 125
2017/07/09 169 808 +12 130
2017/07/08 157 678 +4 230
2017/07/07 153 448 +6 127
2017/07/06 147 321 -3 163
2017/07/05 150 484 -1 380
2017/07/04 151 864 +7 753
2017/07/03 144 111 -2 928
2017/07/02 147 039 -6 432
2017/07/01 153 471 +6 044
2017/06/30 147 427 -3 633
2017/06/29 151 060 +4 738
2017/06/28 146 322 -1 231
2017/06/27 147 553 +3 960
2017/06/26 143 593 +2 495
2017/06/25 141 098 -396
2017/06/24 141 494 +4 156
2017/06/23 137 338 +2 659
2017/06/22 134 679 +1 437
2017/06/21 133 242 -543
2017/06/20 133 785 +5 954
2017/06/19 127 831 +3 163
2017/06/18 124 668 -2 146
2017/06/17 126 814

WIDGET FOR YOUR SITE

DOMAINS WITH THE NEAREST RANK

Domain Rank
tvdsb.ca 139 756
kau.se 139 757
opengpu.org 139 758
consalud.cl 139 759
akz.hr 139 760
seojapan.com 139 761
educacionsuperior.gob.ec 139 762
bigass69.com 139 763
ilikephp.ir 139 764
copypastekon.ir 139 765
cykelpartner.dk 139 766

DOMAINS WITH THE NEAREST RANK BY TLD .com

Domain Rank
ar-only4men.com 139 747
cn-print.com 139 748
sakuramochispace.com 139 749
atrinkala.com 139 751
nych87.com 139 755
seojapan.com 139 761
bigass69.com 139 763
qgiv.com 139 768
interfacelovers.com 139 771
visitdenmark.com 139 774
mspmanager.com 139 777